createdAt,value
2018-08-12T00:00:10.672Z,17.49
2018-08-12T00:01:10.662Z,17.54
2018-08-12T00:02:10.642Z,17.34
2018-08-12T00:03:10.630Z,17.19
2018-08-12T00:04:10.617Z,16.92
2018-08-12T00:05:10.603Z,16.91
2018-08-12T00:06:10.592Z,16.87
2018-08-12T00:07:10.576Z,16.83
2018-08-12T00:08:10.561Z,16.87
2018-08-12T00:09:10.548Z,16.90
2018-08-12T00:10:10.534Z,16.90
2018-08-12T00:11:10.521Z,16.84
2018-08-12T00:12:10.509Z,16.95
2018-08-12T00:13:10.497Z,16.95
2018-08-12T00:14:10.480Z,16.88
2018-08-12T00:15:10.485Z,16.97
2018-08-12T00:16:10.459Z,17.10
2018-08-12T00:17:10.441Z,16.88
2018-08-12T00:18:10.433Z,16.87
2018-08-12T00:19:10.414Z,16.73
2018-08-12T00:20:10.400Z,16.79
2018-08-12T00:21:10.386Z,16.69
2018-08-12T00:22:10.373Z,16.79
2018-08-12T00:23:10.360Z,16.64
2018-08-12T00:24:10.348Z,16.70
2018-08-12T00:25:10.341Z,16.70
2018-08-12T00:26:10.324Z,16.83
2018-08-12T00:27:10.304Z,16.83
2018-08-12T00:28:10.291Z,16.91
2018-08-12T00:29:10.279Z,16.94
2018-08-12T00:30:10.264Z,16.87
2018-08-12T00:31:10.257Z,16.94
2018-08-12T00:32:10.235Z,16.87
2018-08-12T00:33:10.225Z,16.94
2018-08-12T00:34:10.209Z,16.98
2018-08-12T00:35:10.194Z,17.07
2018-08-12T00:36:10.182Z,17.12
2018-08-12T00:37:10.168Z,16.92
2018-08-12T00:38:10.154Z,16.94
2018-08-12T00:39:10.140Z,16.94
2018-08-12T00:40:10.125Z,16.97
2018-08-12T00:41:10.112Z,16.84
2018-08-12T00:42:10.099Z,17.04
2018-08-12T00:43:10.084Z,17.02
2018-08-12T00:44:10.075Z,16.95
2018-08-12T00:45:10.057Z,16.77
2018-08-12T00:46:10.046Z,16.57
2018-08-12T00:47:10.037Z,16.21
2018-08-12T00:48:10.021Z,15.95
2018-08-12T00:49:10.005Z,15.69
2018-08-12T00:50:09.988Z,15.62
2018-08-12T00:51:09.975Z,15.62
2018-08-12T00:52:09.960Z,15.59
2018-08-12T00:53:09.956Z,15.73
2018-08-12T00:54:09.933Z,15.87
2018-08-12T00:55:09.917Z,15.95
2018-08-12T00:56:09.904Z,15.91
2018-08-12T00:57:09.898Z,16.13
2018-08-12T00:58:09.875Z,15.93
2018-08-12T00:59:09.862Z,15.88
2018-08-12T01:00:09.851Z,15.83
2018-08-12T01:01:09.845Z,15.81
2018-08-12T01:02:09.823Z,15.93
2018-08-12T01:03:09.805Z,16.03
2018-08-12T01:04:09.794Z,16.02
2018-08-12T01:05:09.776Z,16.08
2018-08-12T01:06:09.769Z,16.08
2018-08-12T01:07:09.749Z,16.05
2018-08-12T01:08:09.736Z,15.96
2018-08-12T01:09:09.722Z,15.99
2018-08-12T01:10:09.706Z,15.93
2018-08-12T01:11:09.695Z,15.87
2018-08-12T01:12:09.677Z,15.90
2018-08-12T01:13:09.670Z,15.99
2018-08-12T01:14:09.655Z,16.06
2018-08-12T01:15:09.637Z,15.98
2018-08-12T01:16:09.622Z,15.85
2018-08-12T01:17:09.613Z,15.66
2018-08-12T01:18:09.600Z,15.47
2018-08-12T01:19:09.578Z,15.36
2018-08-12T01:20:09.570Z,15.30
2018-08-12T01:21:09.553Z,15.43
2018-08-12T01:22:09.537Z,15.45
2018-08-12T01:23:09.525Z,15.54
2018-08-12T01:24:09.506Z,15.72
2018-08-12T01:25:09.492Z,15.77
2018-08-12T01:26:09.477Z,15.78
2018-08-12T01:27:09.463Z,15.88
2018-08-12T01:28:09.451Z,15.91
2018-08-12T01:29:09.440Z,15.69
2018-08-12T01:30:09.424Z,15.69
2018-08-12T01:31:09.406Z,15.60
2018-08-12T01:32:09.395Z,15.41
2018-08-12T01:33:09.378Z,15.38
2018-08-12T01:34:09.362Z,15.41
2018-08-12T01:35:09.349Z,15.35
2018-08-12T01:36:09.337Z,15.50
2018-08-12T01:37:09.321Z,15.60
2018-08-12T01:38:09.306Z,15.63
2018-08-12T01:39:09.289Z,15.77
2018-08-12T01:40:09.280Z,15.81
2018-08-12T01:41:09.262Z,15.81
2018-08-12T01:42:09.247Z,15.93
2018-08-12T01:43:09.237Z,15.88
2018-08-12T01:44:09.216Z,15.90
2018-08-12T01:45:09.213Z,15.73
2018-08-12T01:46:09.189Z,15.78
2018-08-12T01:47:09.174Z,15.63
2018-08-12T01:48:09.159Z,15.59
2018-08-12T01:49:09.149Z,15.44
2018-08-12T01:50:09.132Z,15.43
2018-08-12T01:51:09.115Z,15.45
2018-08-12T01:52:09.100Z,15.52
2018-08-12T01:53:09.095Z,15.59
2018-08-12T01:54:09.077Z,15.68
2018-08-12T01:55:09.060Z,15.72
2018-08-12T01:56:09.048Z,15.83
2018-08-12T01:57:09.028Z,15.93
2018-08-12T01:58:09.016Z,15.88
2018-08-12T01:59:09.002Z,15.90
2018-08-12T02:00:08.987Z,15.95
2018-08-12T02:01:08.980Z,15.85
2018-08-12T02:02:08.958Z,15.60
2018-08-12T02:03:08.941Z,15.47
2018-08-12T02:04:08.925Z,15.30
2018-08-12T02:05:08.910Z,15.29
2018-08-12T02:06:08.899Z,15.23
2018-08-12T02:07:08.881Z,15.20
2018-08-12T02:08:08.867Z,15.12
2018-08-12T02:09:08.854Z,15.15
2018-08-12T02:10:08.846Z,15.26
2018-08-12T02:11:08.821Z,15.35
2018-08-12T02:12:08.808Z,15.44
2018-08-12T02:13:08.792Z,15.59
2018-08-12T02:14:08.783Z,15.60
2018-08-12T02:15:08.763Z,15.63
2018-08-12T02:16:08.753Z,15.76
2018-08-12T02:17:08.735Z,15.81
2018-08-12T02:18:08.728Z,15.73
2018-08-12T02:19:08.706Z,15.73
2018-08-12T02:20:08.696Z,15.69
2018-08-12T02:21:08.676Z,15.80
2018-08-12T02:22:08.662Z,15.85
2018-08-12T02:23:08.650Z,15.87
2018-08-12T02:24:08.641Z,15.90
2018-08-12T02:25:08.619Z,15.95
2018-08-12T02:26:08.607Z,15.93
2018-08-12T02:27:08.590Z,15.88
2018-08-12T02:28:08.574Z,15.87
2018-08-12T02:29:08.559Z,15.99
2018-08-12T02:30:08.552Z,15.84
2018-08-12T02:31:08.532Z,16.03
2018-08-12T02:32:08.519Z,15.90
2018-08-12T02:33:08.503Z,15.93
2018-08-12T02:34:08.496Z,15.96
2018-08-12T02:35:08.477Z,15.91
2018-08-12T02:36:08.495Z,15.99
2018-08-12T02:37:08.444Z,15.96
2018-08-12T02:38:08.430Z,16.02
2018-08-12T02:39:08.416Z,15.99
2018-08-12T02:40:08.400Z,16.03
2018-08-12T02:41:08.385Z,16.06
2018-08-12T02:42:08.375Z,16.05
2018-08-12T02:43:08.357Z,15.95
2018-08-12T02:44:08.341Z,15.95
2018-08-12T02:45:08.328Z,15.93
2018-08-12T02:46:08.330Z,15.77
2018-08-12T02:47:08.301Z,15.69
2018-08-12T02:48:08.288Z,15.62
2018-08-12T02:49:08.272Z,15.56
2018-08-12T02:50:08.254Z,15.65
2018-08-12T02:51:08.250Z,15.62
2018-08-12T02:52:08.231Z,15.54
2018-08-12T02:53:08.212Z,15.52
2018-08-12T02:54:08.197Z,15.44
2018-08-12T02:55:08.183Z,15.44
2018-08-12T02:56:08.168Z,15.43
2018-08-12T02:57:08.154Z,15.32
2018-08-12T02:58:08.140Z,15.23
2018-08-12T02:59:08.123Z,15.20
2018-08-12T03:00:08.107Z,15.12
2018-08-12T03:01:08.092Z,15.10
2018-08-12T03:02:08.083Z,15.03
2018-08-12T03:03:08.062Z,14.90
2018-08-12T03:04:08.052Z,14.99
2018-08-12T03:05:08.045Z,14.90
2018-08-12T03:06:08.018Z,14.90
2018-08-12T03:07:08.008Z,14.82
2018-08-12T03:08:07.989Z,14.78
2018-08-12T03:09:07.978Z,14.78
2018-08-12T03:10:07.964Z,14.70
2018-08-12T03:11:07.945Z,14.79
2018-08-12T03:12:07.930Z,14.82
2018-08-12T03:13:07.924Z,14.70
2018-08-12T03:14:07.899Z,14.71
2018-08-12T03:15:07.885Z,14.77
2018-08-12T03:16:07.872Z,14.67
2018-08-12T03:17:07.871Z,14.49
2018-08-12T03:18:07.841Z,14.46
2018-08-12T03:19:07.824Z,14.40
2018-08-12T03:20:07.810Z,14.34
2018-08-12T03:21:07.800Z,14.44
2018-08-12T03:22:07.781Z,14.38
2018-08-12T03:23:07.764Z,14.48
2018-08-12T03:24:07.749Z,14.30
2018-08-12T03:25:07.732Z,14.27
2018-08-12T03:26:07.720Z,14.21
2018-08-12T03:27:07.702Z,14.11
2018-08-12T03:28:07.688Z,14.15
2018-08-12T03:29:07.674Z,14.18
2018-08-12T03:30:07.751Z,14.19
2018-08-12T03:31:07.645Z,14.27
2018-08-12T03:32:07.627Z,14.16
2018-08-12T03:33:07.612Z,14.19
2018-08-12T03:34:07.603Z,14.22
2018-08-12T03:35:07.583Z,14.26
2018-08-12T03:36:07.573Z,14.36
2018-08-12T03:37:07.552Z,14.38
2018-08-12T03:38:07.542Z,14.49
2018-08-12T03:39:07.520Z,14.56
2018-08-12T03:40:07.511Z,14.55
2018-08-12T03:41:07.494Z,14.56
2018-08-12T03:42:07.480Z,14.61
2018-08-12T03:43:07.463Z,14.56
2018-08-12T03:44:07.443Z,14.71
2018-08-12T03:45:07.433Z,14.71
2018-08-12T03:46:07.413Z,14.78
2018-08-12T03:47:07.398Z,14.85
2018-08-12T03:48:07.383Z,14.90
2018-08-12T03:49:07.366Z,14.92
2018-08-12T03:50:07.353Z,14.90
2018-08-12T03:51:07.337Z,14.95
2018-08-12T03:52:07.323Z,14.78
2018-08-12T03:53:07.308Z,14.77
2018-08-12T03:54:07.292Z,14.83
2018-08-12T03:55:07.277Z,14.73
2018-08-12T03:56:07.269Z,14.67
2018-08-12T03:57:07.247Z,14.56
2018-08-12T03:58:07.235Z,14.58
2018-08-12T03:59:07.214Z,14.61
2018-08-12T04:00:07.200Z,14.74
2018-08-12T04:01:07.186Z,14.70
2018-08-12T04:02:07.170Z,14.69
2018-08-12T04:03:07.155Z,14.77
2018-08-12T04:04:07.142Z,14.73
2018-08-12T04:05:07.125Z,14.53
2018-08-12T04:06:07.111Z,14.56
2018-08-12T04:07:07.094Z,14.59
2018-08-12T04:08:07.080Z,14.63
2018-08-12T04:09:07.064Z,14.66
2018-08-12T04:10:07.052Z,14.67
2018-08-12T04:11:07.038Z,14.71
2018-08-12T04:12:07.018Z,14.78
2018-08-12T04:13:07.004Z,14.71
2018-08-12T04:14:06.988Z,14.77
2018-08-12T04:15:06.969Z,14.51
2018-08-12T04:16:06.966Z,14.41
2018-08-12T04:17:06.941Z,14.28
2018-08-12T04:18:06.925Z,14.40
2018-08-12T04:19:07.079Z,14.44
2018-08-12T04:20:06.948Z,14.55
2018-08-12T04:21:06.882Z,14.52
2018-08-12T04:22:06.864Z,14.45
2018-08-12T04:23:06.848Z,14.36
2018-08-12T04:24:06.837Z,14.23
2018-08-12T04:25:06.819Z,14.05
2018-08-12T04:26:06.803Z,13.94
2018-08-12T04:27:06.788Z,13.82
2018-08-12T04:28:06.778Z,13.73
2018-08-12T04:29:06.762Z,13.79
2018-08-12T04:30:06.740Z,13.60
2018-08-12T04:31:06.729Z,13.55
2018-08-12T04:32:06.710Z,13.43
2018-08-12T04:33:06.700Z,13.49
2018-08-12T04:34:06.679Z,13.55
2018-08-12T04:35:06.665Z,13.61
2018-08-12T04:36:06.649Z,13.55
2018-08-12T04:37:06.633Z,13.72
2018-08-12T04:38:06.620Z,13.79
2018-08-12T04:39:06.601Z,13.82
2018-08-12T04:40:06.587Z,13.93
2018-08-12T04:41:06.573Z,13.82
2018-08-12T04:42:06.567Z,13.91
2018-08-12T04:43:06.547Z,13.83
2018-08-12T04:44:06.521Z,13.73
2018-08-12T04:45:06.513Z,13.58
2018-08-12T04:46:06.649Z,13.55
2018-08-12T04:47:06.481Z,13.49
2018-08-12T04:48:06.461Z,13.53
2018-08-12T04:49:06.447Z,13.58
2018-08-12T04:50:06.429Z,13.55
2018-08-12T04:51:06.417Z,13.57
2018-08-12T04:52:06.400Z,13.65
2018-08-12T04:53:06.382Z,13.63
2018-08-12T04:54:06.366Z,13.63
2018-08-12T04:55:06.349Z,13.79
2018-08-12T04:56:06.333Z,13.75
2018-08-12T04:57:06.319Z,13.82
2018-08-12T04:58:06.305Z,13.71
2018-08-12T04:59:06.286Z,13.82
2018-08-12T05:00:06.275Z,13.75
2018-08-12T05:01:06.256Z,13.90
2018-08-12T05:02:06.242Z,13.85
2018-08-12T05:03:06.224Z,13.68
2018-08-12T05:04:06.212Z,13.71
2018-08-12T05:05:06.193Z,13.75
2018-08-12T05:06:06.178Z,13.58
2018-08-12T05:07:06.165Z,13.58
2018-08-12T05:08:06.147Z,13.54
2018-08-12T05:09:06.131Z,13.54
2018-08-12T05:10:06.127Z,13.49
2018-08-12T05:11:06.099Z,13.49
2018-08-12T05:12:06.083Z,13.54
2018-08-12T05:13:06.067Z,13.58
2018-08-12T05:14:06.056Z,13.58
2018-08-12T05:15:06.037Z,13.60
2018-08-12T05:16:06.021Z,13.65
2018-08-12T05:17:06.006Z,13.82
2018-08-12T05:18:05.991Z,13.86
2018-08-12T05:19:05.974Z,13.85
2018-08-12T05:20:05.966Z,13.64
2018-08-12T05:21:05.942Z,13.68
2018-08-12T05:22:05.928Z,13.75
2018-08-12T05:23:05.910Z,13.88
2018-08-12T05:24:05.896Z,13.78
2018-08-12T05:25:05.892Z,13.88
2018-08-12T05:26:05.861Z,13.94
2018-08-12T05:27:05.847Z,14.00
2018-08-12T05:28:05.833Z,14.05
2018-08-12T05:29:05.816Z,14.08
2018-08-12T05:30:05.798Z,14.09
2018-08-12T05:31:05.785Z,14.01
2018-08-12T05:32:05.772Z,14.03
2018-08-12T05:33:05.750Z,14.01
2018-08-12T05:34:05.736Z,14.13
2018-08-12T05:35:05.719Z,14.22
2018-08-12T05:36:05.751Z,14.41
2018-08-12T05:37:05.688Z,14.36
2018-08-12T05:38:05.675Z,14.44
2018-08-12T05:39:05.656Z,14.41
2018-08-12T05:40:05.642Z,14.38
2018-08-12T05:41:05.624Z,14.46
2018-08-12T05:42:05.613Z,14.45
2018-08-12T05:43:05.604Z,14.52
2018-08-12T05:44:05.581Z,14.49
2018-08-12T05:45:05.567Z,14.51
2018-08-12T05:46:05.549Z,14.45
2018-08-12T05:47:05.531Z,14.48
2018-08-12T05:48:05.517Z,14.55
2018-08-12T05:49:05.500Z,14.67
2018-08-12T05:50:05.484Z,14.67
2018-08-12T05:51:05.572Z,14.67
2018-08-12T05:52:05.454Z,14.71
2018-08-12T05:53:05.438Z,14.74
2018-08-12T05:54:05.422Z,14.93
2018-08-12T05:55:05.407Z,14.90
2018-08-12T05:56:05.393Z,14.95
2018-08-12T05:57:05.407Z,15.05
2018-08-12T05:58:05.360Z,15.05
2018-08-12T05:59:05.349Z,15.08
2018-08-12T06:00:05.330Z,15.11
2018-08-12T06:01:05.315Z,15.17
2018-08-12T06:02:05.303Z,15.22
2018-08-12T06:03:05.288Z,15.35
2018-08-12T06:04:05.272Z,15.45
2018-08-12T06:05:05.254Z,15.48
2018-08-12T06:06:05.239Z,15.45
2018-08-12T06:07:05.226Z,15.44
2018-08-12T06:08:05.204Z,15.50
2018-08-12T06:09:05.198Z,15.45
2018-08-12T06:10:05.179Z,15.51
2018-08-12T06:11:05.164Z,15.60
2018-08-12T06:12:05.146Z,15.58
2018-08-12T06:13:05.132Z,15.62
2018-08-12T06:14:05.129Z,15.72
2018-08-12T06:15:05.102Z,15.73
2018-08-12T06:16:05.089Z,15.66
2018-08-12T06:17:05.073Z,15.76
2018-08-12T06:18:05.059Z,15.78
2018-08-12T06:19:05.043Z,15.78
2018-08-12T06:20:05.027Z,15.87
2018-08-12T06:21:05.016Z,15.87
2018-08-12T06:22:05.000Z,15.87
2018-08-12T06:23:04.981Z,15.95
2018-08-12T06:24:04.971Z,15.98
2018-08-12T06:25:04.955Z,16.06
2018-08-12T06:26:04.941Z,16.03
2018-08-12T06:27:04.929Z,16.06
2018-08-12T06:28:04.910Z,16.03
2018-08-12T06:29:04.894Z,16.05
2018-08-12T06:30:04.880Z,16.28
2018-08-12T06:31:04.863Z,16.28
2018-08-12T06:32:04.854Z,16.49
2018-08-12T06:33:04.842Z,16.55
2018-08-12T06:34:04.821Z,16.65
2018-08-12T06:35:04.806Z,16.70
2018-08-12T06:36:04.797Z,16.74
2018-08-12T06:37:04.781Z,16.90
2018-08-12T06:38:04.766Z,16.90
2018-08-12T06:39:04.748Z,16.99
2018-08-12T06:40:04.737Z,17.07
2018-08-12T06:41:04.720Z,17.13
2018-08-12T06:42:04.705Z,17.30
2018-08-12T06:43:04.691Z,17.27
2018-08-12T06:44:04.677Z,17.25
2018-08-12T06:45:04.668Z,17.35
2018-08-12T06:46:04.655Z,17.46
2018-08-12T06:47:04.640Z,17.50
2018-08-12T06:48:04.622Z,17.57
2018-08-12T06:49:04.609Z,17.69
2018-08-12T06:50:04.593Z,17.83
2018-08-12T06:51:04.578Z,17.86
2018-08-12T06:52:04.631Z,17.97
2018-08-12T06:53:04.556Z,18.08
2018-08-12T06:54:04.537Z,18.13
2018-08-12T06:55:04.525Z,18.08
2018-08-12T06:56:04.515Z,18.23
2018-08-12T06:57:04.497Z,18.11
2018-08-12T06:58:04.488Z,18.15
2018-08-12T06:59:04.468Z,18.23
2018-08-12T07:00:04.458Z,18.42
2018-08-12T07:01:04.444Z,18.39
2018-08-12T07:02:04.433Z,18.49
2018-08-12T07:03:04.416Z,18.61
2018-08-12T07:04:04.402Z,18.66
2018-08-12T07:05:04.392Z,18.78
2018-08-12T07:06:04.379Z,18.88
2018-08-12T07:07:04.363Z,18.93
2018-08-12T07:08:04.350Z,19.09
2018-08-12T07:09:04.337Z,19.20
2018-08-12T07:10:04.327Z,19.30
2018-08-12T07:11:04.313Z,19.38
2018-08-12T07:12:04.298Z,19.49
2018-08-12T07:13:04.288Z,19.45
2018-08-12T07:14:04.275Z,19.56
2018-08-12T07:15:04.264Z,19.63
2018-08-12T07:16:04.249Z,19.72
2018-08-12T07:17:04.235Z,19.82
2018-08-12T07:18:04.222Z,19.79
2018-08-12T07:19:04.212Z,19.81
2018-08-12T07:20:04.196Z,19.87
2018-08-12T07:21:04.189Z,19.89
2018-08-12T07:22:04.180Z,19.93
2018-08-12T07:23:04.160Z,20.02
2018-08-12T07:24:04.151Z,20.05
2018-08-12T07:25:04.140Z,20.23
2018-08-12T07:26:04.127Z,20.07
2018-08-12T07:27:04.117Z,20.11
2018-08-12T07:28:04.100Z,20.26
2018-08-12T07:29:04.090Z,20.30
2018-08-12T07:30:04.084Z,20.58
2018-08-12T07:31:04.064Z,20.55
2018-08-12T07:32:04.058Z,20.61
2018-08-12T07:33:04.052Z,20.71
2018-08-12T07:34:04.041Z,20.75
2018-08-12T07:35:04.033Z,20.80
2018-08-12T07:36:04.015Z,21.00
2018-08-12T07:37:04.015Z,21.04
2018-08-12T07:38:04.002Z,21.18
2018-08-12T07:39:03.989Z,21.29
2018-08-12T07:40:03.984Z,21.40
2018-08-12T07:41:03.979Z,21.53
2018-08-12T07:42:03.970Z,21.77
2018-08-12T07:43:03.967Z,22.11
2018-08-12T07:44:03.958Z,22.43
2018-08-12T07:45:03.952Z,22.76
2018-08-12T07:46:03.953Z,22.99
2018-08-12T07:47:03.946Z,23.34
2018-08-12T07:48:03.938Z,23.92
2018-08-12T07:49:03.939Z,24.28
2018-08-12T07:50:03.938Z,24.68
2018-08-12T07:51:03.931Z,25.01
2018-08-12T07:52:03.926Z,25.27
2018-08-12T07:53:03.924Z,25.00
2018-08-12T07:54:03.926Z,24.68
2018-08-12T07:55:03.926Z,24.96
2018-08-12T07:56:03.922Z,25.45
2018-08-12T07:57:03.919Z,25.70
2018-08-12T07:58:03.924Z,26.11
2018-08-12T07:59:03.919Z,26.10
2018-08-12T08:00:03.919Z,26.76
2018-08-12T08:01:03.926Z,26.67
2018-08-12T08:02:03.922Z,27.25
2018-08-12T08:03:03.922Z,26.93
2018-08-12T08:04:03.927Z,26.94
2018-08-12T08:05:03.930Z,27.49
2018-08-12T08:06:03.932Z,27.07
2018-08-12T08:07:03.933Z,27.40
2018-08-12T08:08:03.931Z,27.30
2018-08-12T08:09:03.936Z,27.57
2018-08-12T08:10:03.938Z,27.64
2018-08-12T08:11:03.943Z,27.57
2018-08-12T08:12:03.945Z,27.19
2018-08-12T08:13:03.947Z,27.20
2018-08-12T08:14:03.950Z,27.44
2018-08-12T08:15:03.954Z,27.38
2018-08-12T08:16:03.959Z,28.01
2018-08-12T08:17:03.954Z,27.16
2018-08-12T08:18:03.960Z,27.03
2018-08-12T08:19:03.962Z,27.08
2018-08-12T08:20:03.968Z,26.90
2018-08-12T08:21:03.966Z,26.68
2018-08-12T08:22:03.965Z,26.88
2018-08-12T08:23:03.966Z,27.20
2018-08-12T08:24:03.966Z,26.56
2018-08-12T08:25:03.972Z,27.19
2018-08-12T08:26:03.968Z,26.07
2018-08-12T08:27:03.980Z,25.82
2018-08-12T08:28:03.971Z,26.01
2018-08-12T08:29:03.974Z,26.60
2018-08-12T08:30:03.972Z,26.93
2018-08-12T08:31:03.975Z,27.03
2018-08-12T08:32:04.064Z,27.15
2018-08-12T08:33:03.972Z,27.17
2018-08-12T08:34:03.973Z,27.75
2018-08-12T08:35:03.973Z,27.10
2018-08-12T08:36:03.981Z,26.30
2018-08-12T08:37:03.975Z,26.33
2018-08-12T08:38:04.027Z,26.70
2018-08-12T08:39:03.975Z,27.42
2018-08-12T08:40:03.981Z,28.09
2018-08-12T08:41:03.983Z,28.90
2018-08-12T08:42:03.975Z,29.59
2018-08-12T08:43:03.985Z,30.00
2018-08-12T08:44:04.028Z,30.46
2018-08-12T08:45:03.989Z,30.74
2018-08-12T08:46:03.990Z,30.78
2018-08-12T08:47:03.984Z,30.21
2018-08-12T08:48:03.993Z,30.88
2018-08-12T08:49:03.988Z,29.59
2018-08-12T08:50:04.094Z,29.77
2018-08-12T08:51:03.999Z,29.46
2018-08-12T08:52:03.995Z,29.07
2018-08-12T08:53:04.003Z,29.65
2018-08-12T08:54:04.001Z,30.21
2018-08-12T08:55:04.002Z,30.52
2018-08-12T08:56:04.059Z,29.73
2018-08-12T08:57:04.009Z,30.29
2018-08-12T08:58:04.011Z,30.73
2018-08-12T08:59:04.013Z,30.86
2018-08-12T09:00:04.019Z,31.04
2018-08-12T09:01:04.021Z,31.24
2018-08-12T09:02:04.039Z,31.60
2018-08-12T09:03:04.029Z,31.29
2018-08-12T09:04:04.032Z,30.59
2018-08-12T09:05:04.034Z,30.70
2018-08-12T09:06:04.035Z,29.36
2018-08-12T09:07:04.036Z,29.34
2018-08-12T09:08:04.149Z,29.39
2018-08-12T09:09:04.303Z,29.41
2018-08-12T09:10:04.044Z,29.02
2018-08-12T09:11:04.047Z,28.44
2018-08-12T09:12:04.053Z,28.64
2018-08-12T09:13:04.051Z,29.19
2018-08-12T09:14:04.051Z,29.43
2018-08-12T09:15:04.057Z,28.56
2018-08-12T09:16:04.051Z,28.12
2018-08-12T09:17:04.059Z,28.75
2018-08-12T09:18:04.099Z,29.66
2018-08-12T09:19:04.055Z,29.24
2018-08-12T09:20:04.057Z,29.80
2018-08-12T09:21:04.056Z,30.36
2018-08-12T09:22:04.055Z,30.82
2018-08-12T09:23:04.056Z,31.44
2018-08-12T09:24:04.080Z,31.34
2018-08-12T09:25:04.056Z,31.15
2018-08-12T09:26:04.058Z,30.83
2018-08-12T09:27:04.056Z,30.45
2018-08-12T09:28:04.056Z,30.22
2018-08-12T09:29:04.062Z,30.56
2018-08-12T09:30:04.056Z,31.05
2018-08-12T09:31:04.063Z,31.02
2018-08-12T09:32:04.070Z,30.53
2018-08-12T09:33:04.055Z,30.55
2018-08-12T09:34:04.057Z,30.93
2018-08-12T09:35:04.060Z,31.42
2018-08-12T09:36:04.053Z,31.49
2018-08-12T09:37:04.074Z,31.27
2018-08-12T09:38:04.057Z,31.01
2018-08-12T09:39:04.055Z,31.37
2018-08-12T09:40:04.055Z,31.44
2018-08-12T09:41:04.050Z,31.81
2018-08-12T09:42:04.051Z,29.86
2018-08-12T09:43:04.104Z,29.49
2018-08-12T09:44:04.047Z,30.13
2018-08-12T09:45:04.048Z,30.93
2018-08-12T09:46:04.044Z,31.61
2018-08-12T09:47:04.041Z,32.02
2018-08-12T09:48:04.050Z,32.19
2018-08-12T09:49:04.041Z,31.05
2018-08-12T09:50:04.043Z,30.28
2018-08-12T09:51:04.035Z,29.95
2018-08-12T09:52:04.034Z,30.39
2018-08-12T09:53:04.033Z,30.73
2018-08-12T09:54:04.040Z,30.64
2018-08-12T09:55:04.028Z,30.74
2018-08-12T09:56:04.029Z,30.86
2018-08-12T09:57:04.024Z,30.71
2018-08-12T09:58:04.020Z,31.11
2018-08-12T09:59:04.018Z,31.14
2018-08-12T10:00:04.013Z,31.32
2018-08-12T10:01:04.011Z,31.41
2018-08-12T10:02:04.010Z,31.64
2018-08-12T10:03:04.015Z,31.86
2018-08-12T10:04:04.007Z,32.01
2018-08-12T10:05:04.010Z,31.90
2018-08-12T10:06:03.997Z,29.99
2018-08-12T10:07:03.993Z,29.83
2018-08-12T10:08:03.992Z,30.40
2018-08-12T10:09:03.986Z,30.82
2018-08-12T10:10:03.983Z,30.89
2018-08-12T10:11:03.980Z,30.77
2018-08-12T10:12:03.973Z,30.65
2018-08-12T10:13:03.973Z,29.99
2018-08-12T10:14:03.974Z,30.56
2018-08-12T10:15:03.962Z,31.22
2018-08-12T10:16:03.958Z,31.01
2018-08-12T10:17:03.966Z,31.17
2018-08-12T10:18:03.956Z,30.95
2018-08-12T10:19:03.948Z,30.89
2018-08-12T10:20:03.946Z,31.14
2018-08-12T10:21:03.941Z,31.39
2018-08-12T10:22:03.937Z,31.54
2018-08-12T10:23:03.930Z,31.27
2018-08-12T10:24:03.929Z,31.56
2018-08-12T10:25:03.919Z,31.79
2018-08-12T10:26:03.918Z,31.68
2018-08-12T10:27:03.921Z,31.42
2018-08-12T10:28:03.907Z,31.12
2018-08-12T10:29:03.917Z,30.85
2018-08-12T10:30:03.905Z,30.77
2018-08-12T10:31:03.898Z,30.43
2018-08-12T10:32:03.891Z,30.83
2018-08-12T10:33:03.889Z,31.02
2018-08-12T10:34:03.882Z,30.83
2018-08-12T10:35:03.875Z,30.77
2018-08-12T10:36:03.887Z,30.67
2018-08-12T10:37:03.882Z,30.71
2018-08-12T10:38:03.863Z,30.29
2018-08-12T10:39:03.860Z,29.65
2018-08-12T10:40:03.856Z,29.76
2018-08-12T10:41:03.851Z,29.70
2018-08-12T10:42:03.847Z,29.17
2018-08-12T10:43:03.840Z,29.15
2018-08-12T10:44:03.839Z,29.39
2018-08-12T10:45:03.830Z,29.70
2018-08-12T10:46:03.830Z,29.52
2018-08-12T10:47:03.818Z,29.27
2018-08-12T10:48:03.814Z,29.44
2018-08-12T10:49:03.821Z,29.61
2018-08-12T10:50:03.815Z,29.68
2018-08-12T10:51:03.799Z,29.52
2018-08-12T10:52:03.798Z,29.63
2018-08-12T10:53:03.792Z,29.81
2018-08-12T10:54:03.787Z,30.14
2018-08-12T10:55:03.782Z,30.18
2018-08-12T10:56:03.776Z,29.86
2018-08-12T10:57:03.775Z,29.84
2018-08-12T10:58:03.776Z,29.81
2018-08-12T10:59:03.759Z,29.86
2018-08-12T11:00:03.756Z,29.96
2018-08-12T11:01:03.758Z,29.84
2018-08-12T11:02:03.749Z,29.84
2018-08-12T11:03:03.746Z,30.21
2018-08-12T11:04:03.739Z,30.59
2018-08-12T11:05:03.730Z,30.28
2018-08-12T11:06:03.736Z,30.39
2018-08-12T11:07:03.722Z,29.74
2018-08-12T11:08:03.719Z,30.03
2018-08-12T11:09:03.713Z,29.89
2018-08-12T11:10:03.707Z,29.29
2018-08-12T11:11:03.710Z,29.71
2018-08-12T11:12:03.700Z,29.87
2018-08-12T11:13:03.699Z,29.68
2018-08-12T11:14:03.687Z,29.89
2018-08-12T11:15:03.681Z,30.32
2018-08-12T11:16:03.673Z,29.63
2018-08-12T11:17:03.669Z,29.70
2018-08-12T11:18:03.670Z,29.96
2018-08-12T11:19:03.662Z,30.02
2018-08-12T11:20:03.659Z,30.32
2018-08-12T11:21:03.649Z,30.14
2018-08-12T11:22:03.652Z,30.28
2018-08-12T11:23:03.640Z,30.08
2018-08-12T11:24:03.640Z,30.18
2018-08-12T11:25:03.631Z,30.29
2018-08-12T11:26:03.623Z,30.60
2018-08-12T11:27:03.621Z,30.85
2018-08-12T11:28:03.616Z,30.71
2018-08-12T11:29:03.620Z,30.56
2018-08-12T11:30:03.605Z,30.26
2018-08-12T11:31:03.600Z,29.80
2018-08-12T11:32:03.605Z,30.00
2018-08-12T11:33:03.589Z,30.29
2018-08-12T11:34:03.591Z,30.32
2018-08-12T11:35:03.578Z,29.71
2018-08-12T11:36:03.582Z,29.91
2018-08-12T11:37:03.571Z,29.81
2018-08-12T11:38:03.570Z,29.63
2018-08-12T11:39:03.566Z,29.55
2018-08-12T11:40:03.558Z,29.71
2018-08-12T11:41:03.552Z,29.54
2018-08-12T11:42:03.548Z,29.59
2018-08-12T11:43:03.539Z,29.55
2018-08-12T11:44:03.537Z,29.63
2018-08-12T11:45:03.526Z,29.68
2018-08-12T11:46:03.521Z,29.74
2018-08-12T11:47:03.515Z,29.02
2018-08-12T11:48:03.512Z,28.93
2018-08-12T11:49:03.521Z,28.96
2018-08-12T11:50:03.499Z,28.96
2018-08-12T11:51:03.496Z,29.09
2018-08-12T11:52:03.490Z,29.52
2018-08-12T11:53:03.483Z,29.61
2018-08-12T11:54:03.477Z,29.89
2018-08-12T11:55:03.480Z,29.74
2018-08-12T11:56:03.469Z,29.49
2018-08-12T11:57:03.539Z,29.44
2018-08-12T11:58:03.458Z,29.78
2018-08-12T11:59:03.451Z,30.10
2018-08-12T12:00:03.448Z,30.39
2018-08-12T12:01:03.443Z,30.71
2018-08-12T12:02:03.477Z,30.92
2018-08-12T12:03:03.446Z,31.11
2018-08-12T12:04:03.426Z,30.53
2018-08-12T12:05:03.424Z,30.58
2018-08-12T12:06:03.432Z,30.86
2018-08-12T12:07:03.419Z,30.67
2018-08-12T12:08:03.406Z,30.89
2018-08-12T12:09:03.404Z,30.92
2018-08-12T12:10:03.397Z,30.59
2018-08-12T12:11:03.391Z,30.59
2018-08-12T12:12:03.389Z,30.85
2018-08-12T12:13:03.383Z,30.90
2018-08-12T12:14:03.377Z,30.89
2018-08-12T12:15:03.424Z,30.85
2018-08-12T12:16:03.368Z,30.82
2018-08-12T12:17:03.364Z,30.82
2018-08-12T12:18:03.360Z,30.83
2018-08-12T12:19:03.347Z,30.99
2018-08-12T12:20:03.343Z,31.20
2018-08-12T12:21:03.338Z,31.33
2018-08-12T12:22:03.345Z,31.20
2018-08-12T12:23:03.330Z,31.37
2018-08-12T12:24:03.328Z,31.33
2018-08-12T12:25:03.321Z,31.10
2018-08-12T12:26:03.371Z,31.32
2018-08-12T12:27:03.313Z,30.83
2018-08-12T12:28:03.307Z,30.73
2018-08-12T12:29:03.303Z,30.67
2018-08-12T12:30:03.300Z,30.60
2018-08-12T12:31:03.292Z,30.53
2018-08-12T12:32:03.293Z,30.56
2018-08-12T12:33:03.293Z,30.56
2018-08-12T12:34:03.284Z,30.64
2018-08-12T12:35:03.279Z,30.45
2018-08-12T12:36:03.273Z,30.55
2018-08-12T12:37:03.263Z,30.73
2018-08-12T12:38:03.262Z,30.85
2018-08-12T12:39:03.256Z,31.14
2018-08-12T12:40:03.255Z,31.46
2018-08-12T12:41:03.250Z,31.56
2018-08-12T12:42:03.255Z,31.63
2018-08-12T12:43:03.237Z,31.67
2018-08-12T12:44:03.232Z,31.64
2018-08-12T12:45:03.239Z,31.74
2018-08-12T12:46:03.226Z,31.90
2018-08-12T12:47:03.225Z,31.89
2018-08-12T12:48:03.216Z,31.98
2018-08-12T12:49:03.209Z,30.56
2018-08-12T12:50:03.226Z,30.37
2018-08-12T12:51:03.202Z,30.52
2018-08-12T12:52:03.198Z,30.18